Time;durP1;ratioP1;P1;durP2;ratioP2;P2;SDS_P1;SDS_P2;PMS_P1;PMS_P2;Temp;Humidity;BMP_temperature;BMP_pressure;BME280_temperature;BME280_humidity;BME280_pressure;Samples;Min_cycle;Max_cycle;Signal;HPM_P1;HPM_P2
2021/05/20 00:00:23;;;;;;;13.27;2.45;;;;;;;12.01;61.76;101786.06;4952241;28;20058;-71
2021/05/20 00:02:51;;;;;;;7.65;1.52;;;;;;;12.23;61.41;101780.75;4952491;29;20051;-71
2021/05/20 00:05:19;;;;;;;8.30;1.75;;;;;;;12.20;61.79;101781.34;4953101;29;20051;-70
2021/05/20 00:07:47;;;;;;;5.45;1.50;;;;;;;12.14;61.45;101791.66;4935713;29;20059;-69
2021/05/20 00:10:15;;;;;;;8.57;2.00;;;;;;;12.19;61.36;101782.47;4951360;29;20047;-70
2021/05/20 00:12:45;;;;;;;9.10;1.80;;;;;;;12.25;61.54;101781.28;4903379;29;20495;-70
2021/05/20 00:15:15;;;;;;;9.30;2.28;;;;;;;12.31;61.30;101791.13;4952719;29;20050;-71
2021/05/20 00:17:42;;;;;;;9.00;1.95;;;;;;;12.31;60.98;101793.88;4951738;29;20060;-70
2021/05/20 00:20:10;;;;;;;8.65;1.90;;;;;;;11.82;62.59;101793.50;4935354;29;20400;-70
2021/05/20 00:22:38;;;;;;;5.90;1.55;;;;;;;12.03;62.54;101789.34;4936234;29;20403;-70
2021/05/20 00:25:06;;;;;;;8.65;1.80;;;;;;;12.01;62.31;101786.84;4952368;29;20528;-72
2021/05/20 00:27:34;;;;;;;9.43;1.70;;;;;;;11.87;62.69;101779.63;4935438;29;20043;-71
2021/05/20 00:30:04;;;;;;;9.45;2.10;;;;;;;11.61;63.55;101783.78;4916539;29;20131;-72
2021/05/20 00:32:31;;;;;;;7.50;1.77;;;;;;;11.71;63.58;101784.50;4935710;29;20051;-71
2021/05/20 00:34:59;;;;;;;6.45;1.90;;;;;;;11.89;63.27;101785.66;4952812;29;20055;-70
2021/05/20 00:37:26;;;;;;;7.78;1.83;;;;;;;11.78;63.61;101784.16;4935466;29;20062;-70
2021/05/20 00:39:54;;;;;;;10.00;2.00;;;;;;;11.56;64.55;101789.38;4951772;29;20039;-69
2021/05/20 00:42:21;;;;;;;13.13;1.73;;;;;;;11.55;64.71;101783.00;4951386;28;20047;-70
2021/05/20 00:44:49;;;;;;;8.70;1.80;;;;;;;11.48;64.84;101795.50;4935082;29;20051;-69
2021/05/20 00:47:18;;;;;;;13.35;2.75;;;;;;;11.64;64.41;101796.97;4934211;29;20047;-69
2021/05/20 00:49:46;;;;;;;8.70;1.80;;;;;;;11.70;64.47;101793.09;4951197;29;20051;-70
2021/05/20 00:52:13;;;;;;;7.43;1.90;;;;;;;11.37;65.25;101791.25;4952121;29;20047;-70
2021/05/20 00:54:41;;;;;;;9.60;1.65;;;;;;;11.50;65.38;101798.81;4951952;29;20051;-69
2021/05/20 00:57:10;;;;;;;10.10;2.35;;;;;;;11.35;65.69;101797.03;4952058;29;20063;-70
2021/05/20 00:59:38;;;;;;;7.22;1.65;;;;;;;11.24;66.35;101790.78;4934174;29;20055;-69
2021/05/20 01:02:05;;;;;;;8.73;2.38;;;;;;;11.08;66.71;101800.34;4935167;29;20404;-70
2021/05/20 01:04:33;;;;;;;6.70;1.65;;;;;;;11.15;66.92;101789.81;4951468;28;20051;-70
2021/05/20 01:07:00;;;;;;;10.75;1.60;;;;;;;11.20;67.20;101794.44;4951780;29;20051;-69
2021/05/20 01:09:28;;;;;;;8.38;2.10;;;;;;;11.28;67.01;101796.53;4951684;29;20506;-71
2021/05/20 01:11:55;;;;;;;7.18;1.95;;;;;;;11.33;66.79;101802.03;4935066;29;20051;-71
2021/05/20 01:14:23;;;;;;;8.18;2.17;;;;;;;11.41;66.49;101806.06;4934872;29;20051;-70
2021/05/20 01:16:50;;;;;;;9.50;2.10;;;;;;;11.40;66.12;101805.28;4952203;29;20052;-70
2021/05/20 01:19:17;;;;;;;7.15;1.83;;;;;;;11.56;65.50;101809.47;4918874;29;20066;-69
2021/05/20 01:21:45;;;;;;;11.20;2.00;;;;;;;11.14;67.10;101807.44;4934431;29;20055;-70
2021/05/20 01:24:12;;;;;;;9.38;2.00;;;;;;;11.22;67.40;101806.00;4951747;29;20055;-68
2021/05/20 01:26:40;;;;;;;13.52;2.58;;;;;;;11.11;67.39;101802.53;4952358;29;20039;-71
2021/05/20 01:29:08;;;;;;;8.88;1.85;;;;;;;11.11;68.23;101804.44;4934622;29;20515;-72
2021/05/20 01:31:35;;;;;;;7.38;2.00;;;;;;;11.26;67.31;101804.31;4951854;29;20427;-71
2021/05/20 01:34:03;;;;;;;15.13;2.70;;;;;;;11.27;67.56;101806.78;4918965;29;20043;-71
2021/05/20 01:36:30;;;;;;;8.27;1.90;;;;;;;11.00;68.10;101813.94;4919143;29;20354;-70
2021/05/20 01:38:59;;;;;;;7.53;1.83;;;;;;;11.05;68.68;101811.13;4952484;28;20490;-71
2021/05/20 01:41:27;;;;;;;9.88;2.10;;;;;;;10.95;68.79;101806.53;4922366;29;20051;-70
2021/05/20 01:43:56;;;;;;;7.15;2.10;;;;;;;10.92;69.01;101806.28;4938870;29;20055;-70
2021/05/20 01:46:24;;;;;;;9.40;2.50;;;;;;;10.87;69.39;101812.66;4938282;29;20043;-71
2021/05/20 01:48:55;;;;;;;9.02;2.20;;;;;;;10.89;69.67;101812.38;4955359;29;20051;-70
2021/05/20 01:51:23;;;;;;;11.52;2.53;;;;;;;10.77;69.61;101809.19;4938863;29;20047;-69
2021/05/20 01:53:56;;;;;;;10.70;2.97;;;;;;;10.67;70.34;101809.25;4955495;29;20058;-71
2021/05/20 01:56:27;;;;;;;8.75;2.20;;;;;;;10.84;69.80;101802.22;4955096;29;20066;-70
2021/05/20 01:58:55;;;;;;;12.60;2.55;;;;;;;10.96;69.47;101805.44;4954245;29;20059;-70
2021/05/20 02:01:22;;;;;;;10.05;2.10;;;;;;;11.06;68.83;101813.59;4937040;29;20047;-71
2021/05/20 02:03:50;;;;;;;10.90;2.15;;;;;;;10.94;69.12;101815.09;4922040;29;20236;-70
2021/05/20 02:06:17;;;;;;;11.27;2.47;;;;;;;11.01;69.37;101813.66;4955147;29;20054;-69
2021/05/20 02:08:45;;;;;;;7.07;2.05;;;;;;;10.97;69.29;101807.06;4928232;29;20051;-70
2021/05/20 02:11:12;;;;;;;7.20;1.88;;;;;;;10.78;69.47;101810.81;4939488;29;20051;-70
2021/05/20 02:13:39;;;;;;;8.82;2.67;;;;;;;10.84;69.85;101807.75;4936752;29;20052;-70
2021/05/20 02:16:07;;;;;;;11.35;2.15;;;;;;;10.92;69.76;101809.88;4954697;29;20054;-69
2021/05/20 02:18:36;;;;;;;13.40;2.63;;;;;;;11.16;68.98;101807.97;4937333;29;20058;-69
2021/05/20 02:21:04;;;;;;;6.50;1.80;;;;;;;10.94;68.95;101813.16;4936890;29;20055;-70
2021/05/20 02:23:32;;;;;;;7.43;1.88;;;;;;;10.75;69.79;101806.72;4937600;29;20423;-69
2021/05/20 02:25:59;;;;;;;5.85;2.20;;;;;;;10.83;69.72;101813.53;4937883;29;20491;-70
2021/05/20 02:28:26;;;;;;;9.43;2.75;;;;;;;10.72;70.17;101810.03;4921204;29;20116;-70
2021/05/20 02:30:56;;;;;;;9.57;2.05;;;;;;;10.80;69.80;101809.44;4905772;29;20048;-70
2021/05/20 02:33:23;;;;;;;8.55;1.98;;;;;;;10.82;70.15;101809.13;4954390;29;20514;-69
2021/05/20 02:35:51;;;;;;;8.25;2.13;;;;;;;10.82;69.78;101803.63;4954000;28;20051;-70
2021/05/20 02:38:18;;;;;;;10.70;2.22;;;;;;;10.88;69.76;101800.53;4921153;29;20047;-69
2021/05/20 02:40:46;;;;;;;15.00;2.13;;;;;;;10.98;69.39;101794.09;4937598;29;20051;-70
2021/05/20 02:43:13;;;;;;;9.93;2.00;;;;;;;10.94;69.37;101798.53;4936069;29;20407;-69
2021/05/20 02:45:41;;;;;;;8.73;1.70;;;;;;;11.25;68.21;101794.38;4954232;29;20043;-70
2021/05/20 02:48:08;;;;;;;9.32;1.88;;;;;;;10.90;69.28;101795.53;4926179;29;20071;-69
2021/05/20 02:50:35;;;;;;;9.55;2.05;;;;;;;10.67;70.07;101795.50;4953174;28;20073;-68
2021/05/20 02:53:03;;;;;;;7.20;1.92;;;;;;;10.82;69.66;101796.19;4952957;29;20059;-69
2021/05/20 02:55:30;;;;;;;8.32;1.73;;;;;;;10.55;70.25;101790.31;4935534;29;20051;-68
2021/05/20 02:57:59;;;;;;;10.00;2.30;;;;;;;10.86;70.11;101788.16;4953804;29;20054;-68
2021/05/20 03:00:38;;;;;;;14.43;2.30;;;;;;;10.91;69.56;101779.84;4953705;29;20059;-68
2021/05/20 03:03:05;;;;;;;14.88;2.25;;;;;;;10.60;70.41;101784.78;4918499;29;20055;-68
2021/05/20 03:05:33;;;;;;;8.32;2.00;;;;;;;10.60;70.14;101782.03;4928246;29;20059;-69
2021/05/20 03:08:00;;;;;;;13.40;2.45;;;;;;;10.95;69.58;101769.84;4935692;29;20063;-68
2021/05/20 03:10:28;;;;;;;12.63;2.22;;;;;;;10.63;69.96;101777.88;4935229;29;20414;-68
2021/05/20 03:12:56;;;;;;;5.70;1.90;;;;;;;10.61;70.68;101778.16;4936594;28;20050;-70
2021/05/20 03:15:23;;;;;;;10.65;2.05;;;;;;;10.69;70.47;101780.28;4952860;29;20044;-69
2021/05/20 03:17:51;;;;;;;12.77;2.20;;;;;;;10.66;70.01;101780.03;4953038;28;20059;-69
2021/05/20 03:20:19;;;;;;;8.63;1.92;;;;;;;10.80;70.20;101781.88;4935217;29;20039;-68
2021/05/20 03:22:47;;;;;;;8.25;2.20;;;;;;;10.68;70.14;101786.94;4953338;29;20051;-69
2021/05/20 03:25:18;;;;;;;9.57;2.00;;;;;;;10.63;70.35;101781.47;4920075;29;20399;-70
2021/05/20 03:27:46;;;;;;;8.70;2.00;;;;;;;10.46;71.17;101782.97;4953307;29;20054;-68
2021/05/20 03:30:14;;;;;;;10.88;2.45;;;;;;;10.42;71.24;101787.41;4952846;29;20044;-70
2021/05/20 03:32:42;;;;;;;8.32;2.38;;;;;;;10.63;70.71;101781.47;4920380;29;20055;-71
2021/05/20 03:35:10;;;;;;;9.25;2.20;;;;;;;10.69;70.54;101777.53;4936467;29;20054;-71
2021/05/20 03:37:38;;;;;;;8.48;2.65;;;;;;;10.68;70.51;101772.31;4952976;28;20150;-70
2021/05/20 03:40:06;;;;;;;7.35;1.95;;;;;;;10.76;70.16;101783.53;4952682;28;20511;-69
2021/05/20 03:42:35;;;;;;;10.55;2.22;;;;;;;10.64;70.59;101774.00;4935417;29;20047;-69
2021/05/20 03:45:06;;;;;;;11.38;2.17;;;;;;;10.73;70.02;101775.03;4925923;29;20055;-70
2021/05/20 03:47:34;;;;;;;9.27;2.63;;;;;;;10.64;70.85;101776.75;4935926;29;20047;-70
2021/05/20 03:50:03;;;;;;;8.05;2.25;;;;;;;10.45;71.59;101768.38;4951962;29;20051;-69
2021/05/20 03:52:30;;;;;;;9.75;1.73;;;;;;;10.27;71.84;101769.03;4934229;29;20507;-69
2021/05/20 03:54:57;;;;;;;11.48;2.35;;;;;;;10.38;71.73;101765.13;4930288;29;20054;-71
2021/05/20 03:57:25;;;;;;;10.77;2.17;;;;;;;10.47;71.27;101760.66;4952379;29;20051;-70
2021/05/20 03:59:53;;;;;;;8.60;2.22;;;;;;;10.35;72.25;101773.13;4936506;29;20063;-69
2021/05/20 04:02:21;;;;;;;12.82;2.25;;;;;;;10.22;72.61;101769.09;4935655;29;20055;-69
2021/05/20 04:04:48;;;;;;;12.85;2.42;;;;;;;10.20;72.27;101771.28;4952870;29;20066;-70
2021/05/20 04:07:15;;;;;;;8.20;2.13;;;;;;;10.38;71.98;101772.53;4935136;29;20050;-68
2021/05/20 04:09:43;;;;;;;6.20;1.95;;;;;;;10.27;72.04;101776.50;4933848;29;20054;-69
2021/05/20 04:12:10;;;;;;;7.20;2.00;;;;;;;10.07;72.96;101781.00;4952946;29;20051;-69
2021/05/20 04:14:38;;;;;;;8.75;1.80;;;;;;;10.23;72.61;101772.66;4952572;29;20055;-69
2021/05/20 04:17:06;;;;;;;13.75;2.85;;;;;;;10.14;72.83;101767.78;4952867;29;20052;-69
2021/05/20 04:19:33;;;;;;;12.65;2.40;;;;;;;10.23;72.55;101775.41;4934410;29;20058;-70
2021/05/20 04:22:01;;;;;;;13.48;2.75;;;;;;;10.20;72.70;101771.28;4936706;28;20467;-69
2021/05/20 04:24:29;;;;;;;12.60;2.50;;;;;;;10.23;72.72;101780.94;4943761;29;20051;-69
2021/05/20 04:26:56;;;;;;;11.52;2.15;;;;;;;10.12;72.48;101777.41;4919174;29;20407;-69
2021/05/20 04:29:23;;;;;;;6.32;2.38;;;;;;;10.17;73.00;101774.63;4951867;29;20043;-69
2021/05/20 04:31:51;;;;;;;7.03;2.35;;;;;;;10.19;72.55;101769.66;4934812;29;20502;-69
2021/05/20 04:34:18;;;;;;;10.38;2.70;;;;;;;10.20;73.11;101776.78;4952331;29;20419;-69
2021/05/20 04:36:46;;;;;;;8.52;2.05;;;;;;;10.35;72.32;101781.41;4952163;28;20050;-69
2021/05/20 04:39:13;;;;;;;10.35;2.10;;;;;;;10.28;72.75;101775.38;4934756;29;20500;-69
2021/05/20 04:41:42;;;;;;;11.73;2.85;;;;;;;10.32;72.28;101769.00;4934270;29;20059;-68
2021/05/20 04:44:09;;;;;;;7.00;1.85;;;;;;;10.23;72.51;101769.91;4952237;29;20047;-69
2021/05/20 04:46:36;;;;;;;12.77;2.17;;;;;;;10.09;72.93;101770.53;4952062;28;20407;-71
2021/05/20 04:49:11;;;;;;;14.20;2.50;;;;;;;10.19;72.78;101777.91;4951978;29;20511;-71
2021/05/20 04:51:40;;;;;;;10.70;2.35;;;;;;;10.30;72.65;101773.16;4960756;28;20066;-71
2021/05/20 04:54:07;;;;;;;12.27;2.53;;;;;;;10.45;71.96;101770.28;4926313;29;20043;-70
2021/05/20 04:56:35;;;;;;;8.35;1.80;;;;;;;10.35;71.99;101771.22;4909113;29;20051;-70
2021/05/20 04:59:03;;;;;;;9.77;2.03;;;;;;;10.50;71.69;101771.09;4921302;28;20074;-72
2021/05/20 05:01:32;;;;;;;8.10;2.28;;;;;;;10.47;71.44;101770.84;4928987;29;20048;-71
2021/05/20 05:04:00;;;;;;;10.40;2.20;;;;;;;10.18;72.26;101777.09;4919211;29;20511;-71
2021/05/20 05:06:27;;;;;;;7.78;2.22;;;;;;;10.41;72.12;101777.50;4951597;29;20086;-69
2021/05/20 05:08:55;;;;;;;12.00;2.50;;;;;;;10.55;71.29;101778.50;4951720;29;20052;-69
2021/05/20 05:11:23;;;;;;;12.88;2.38;;;;;;;10.68;71.09;101784.19;4951436;29;20047;-71
2021/05/20 05:13:50;;;;;;;10.05;2.30;;;;;;;10.71;70.75;101778.06;4935913;29;20054;-70
2021/05/20 05:16:20;;;;;;;10.80;2.60;;;;;;;10.52;70.80;101782.66;4955367;29;20054;-71
2021/05/20 05:18:49;;;;;;;9.88;2.00;;;;;;;10.69;70.62;101783.06;4955036;28;20050;-70
2021/05/20 05:21:26;;;;;;;11.07;2.40;;;;;;;10.51;71.28;101782.94;4935225;29;20347;-71
2021/05/20 05:24:13;;;;;;;7.93;2.47;;;;;;;10.66;70.82;101786.38;4927961;29;20055;-71
2021/05/20 05:26:42;;;;;;;12.70;2.05;;;;;;;10.72;70.60;101778.91;4931058;29;20068;-69
2021/05/20 05:29:10;;;;;;;7.95;2.05;;;;;;;11.11;70.01;101790.66;4937738;29;20411;-71
2021/05/20 05:31:46;;;;;;;12.57;2.30;;;;;;;10.96;69.94;101788.88;4938275;29;20039;-70
2021/05/20 05:34:17;;;;;;;10.52;2.78;;;;;;;10.91;69.77;101785.34;4936477;29;20058;-71
2021/05/20 05:36:45;;;;;;;11.35;2.63;;;;;;;10.98;69.89;101783.88;4937672;29;20518;-69
2021/05/20 05:39:13;;;;;;;9.13;2.40;;;;;;;11.25;68.93;101788.88;4954826;29;20047;-70
2021/05/20 05:41:41;;;;;;;13.88;2.60;;;;;;;11.34;68.55;101778.84;4942015;28;20055;-70
2021/05/20 05:44:12;;;;;;;8.82;2.65;;;;;;;11.31;68.50;101782.19;4934273;29;20051;-67
2021/05/20 05:46:40;;;;;;;10.52;2.40;;;;;;;11.41;68.10;101779.31;4953626;29;20054;-69
2021/05/20 05:49:16;;;;;;;10.52;3.10;;;;;;;11.63;68.09;101781.56;4921971;29;20054;-70
2021/05/20 05:51:49;;;;;;;13.45;5.75;;;;;;;11.89;66.86;101783.72;4937603;28;20053;-71
2021/05/20 05:54:16;;;;;;;12.82;3.80;;;;;;;11.66;67.62;101778.22;4960466;28;20051;-69
2021/05/20 05:56:44;;;;;;;14.10;3.47;;;;;;;11.69;67.62;101785.91;4937240;29;20422;-68
2021/05/20 05:59:15;;;;;;;11.32;3.30;;;;;;;11.84;67.11;101780.19;4955694;28;20063;-69
2021/05/20 06:01:43;;;;;;;11.32;2.75;;;;;;;12.06;66.76;101775.75;4937649;29;20055;-69
2021/05/20 06:04:11;;;;;;;11.82;3.10;;;;;;;12.19;66.26;101779.69;4937439;29;20047;-71
2021/05/20 06:06:44;;;;;;;10.73;3.00;;;;;;;12.19;66.03;101776.94;4931868;29;20491;-70
2021/05/20 06:09:16;;;;;;;8.98;2.38;;;;;;;12.22;65.88;101774.41;4919635;29;20056;-69
2021/05/20 06:11:44;;;;;;;10.38;2.70;;;;;;;12.13;66.23;101773.41;4937563;29;20055;-70
2021/05/20 06:14:21;;;;;;;10.30;2.92;;;;;;;11.97;66.68;101782.22;4937694;29;20051;-70
2021/05/20 06:16:52;;;;;;;7.93;2.55;;;;;;;12.06;66.98;101788.75;4919628;29;20495;-70
2021/05/20 06:19:20;;;;;;;8.68;2.80;;;;;;;12.42;65.55;101776.03;4938777;29;20047;-68
2021/05/20 06:21:47;;;;;;;10.68;2.88;;;;;;;12.46;65.38;101775.13;4920717;28;20051;-69
2021/05/20 06:24:14;;;;;;;7.85;2.50;;;;;;;12.50;64.84;101771.78;4955012;28;20038;-69
2021/05/20 06:26:42;;;;;;;11.50;2.40;;;;;;;12.64;64.80;101767.94;4953742;28;20058;-71
2021/05/20 06:29:09;;;;;;;10.70;2.35;;;;;;;12.80;64.65;101768.50;4918647;29;20060;-70
2021/05/20 06:31:37;;;;;;;9.60;2.33;;;;;;;12.80;64.69;101763.81;4938940;29;20067;-71
2021/05/20 06:34:04;;;;;;;10.85;2.65;;;;;;;12.90;64.54;101765.59;4954855;28;20055;-71
2021/05/20 06:36:32;;;;;;;12.70;2.50;;;;;;;12.62;64.92;101770.22;4936972;28;20047;-70
2021/05/20 06:38:59;;;;;;;10.65;2.47;;;;;;;12.88;64.68;101771.41;4937259;29;20059;-69
2021/05/20 06:41:27;;;;;;;10.55;2.30;;;;;;;13.14;63.66;101777.34;4936640;29;20047;-68
2021/05/20 06:43:55;;;;;;;6.82;1.80;;;;;;;13.25;63.49;101768.53;4936722;29;20062;-70
2021/05/20 06:46:23;;;;;;;6.20;1.80;;;;;;;13.45;62.60;101770.91;4936401;29;20510;-71
2021/05/20 06:48:50;;;;;;;7.55;2.13;;;;;;;13.78;61.50;101770.78;4929330;29;20055;-71
2021/05/20 06:51:18;;;;;;;9.75;2.20;;;;;;;13.55;62.07;101767.13;4935626;29;20059;-70
2021/05/20 06:53:50;;;;;;;13.20;2.10;;;;;;;13.38;62.04;101776.03;4950058;28;20415;-71
2021/05/20 06:56:21;;;;;;;10.98;2.08;;;;;;;13.61;61.65;101765.91;4938246;28;20460;-69
2021/05/20 07:01:38;;;;;;;9.57;2.45;;;;;;;14.11;60.74;101780.59;4930846;29;20506;-69
2021/05/20 07:04:05;;;;;;;10.48;2.55;;;;;;;14.33;58.93;101770.41;4953659;28;20336;-70
2021/05/20 07:06:33;;;;;;;14.07;3.10;;;;;;;14.54;59.32;101770.72;4927523;29;20051;-71
2021/05/20 07:09:20;;;;;;;15.25;3.13;;;;;;;14.50;57.39;101764.19;4944813;28;20058;-67
2021/05/20 07:11:47;;;;;;;10.23;1.92;;;;;;;14.81;56.95;101767.84;4920785;29;20047;-70
2021/05/20 07:14:15;;;;;;;8.98;2.22;;;;;;;14.75;55.37;101769.09;4947826;29;20051;-67
2021/05/20 07:16:42;;;;;;;6.57;1.45;;;;;;;14.91;54.85;101761.19;4934083;29;20048;-71
2021/05/20 07:19:10;;;;;;;6.88;1.73;;;;;;;14.84;54.01;101766.38;4949740;29;20075;-70
2021/05/20 07:21:37;;;;;;;6.70;1.80;;;;;;;14.86;53.86;101764.09;4952147;29;20066;-70
2021/05/20 07:24:05;;;;;;;9.27;1.63;;;;;;;14.98;53.70;101765.19;4928293;29;20117;-73
2021/05/20 07:26:32;;;;;;;9.85;3.03;;;;;;;14.98;53.39;101762.41;4935301;29;20047;-67
2021/05/20 07:29:01;;;;;;;11.73;2.67;;;;;;;15.28;52.94;101755.22;4950506;28;20047;-70
2021/05/20 07:31:29;;;;;;;10.13;3.70;;;;;;;15.29;51.80;101757.66;4928677;29;20492;-72
2021/05/20 07:33:57;;;;;;;14.90;2.83;;;;;;;15.42;51.92;101755.97;4954080;28;20055;-68
2021/05/20 07:36:25;;;;;;;8.27;1.40;;;;;;;15.63;51.27;101755.06;4948981;28;20478;-71
2021/05/20 07:38:52;;;;;;;10.88;1.40;;;;;;;15.73;50.02;101745.59;4919557;28;20043;-71
2021/05/20 07:41:20;;;;;;;6.50;1.52;;;;;;;15.95;49.18;101747.47;4952173;28;20078;-71
2021/05/20 07:43:50;;;;;;;9.45;1.45;;;;;;;15.83;47.86;101744.50;4934528;29;20051;-68
2021/05/20 07:46:18;;;;;;;6.60;1.45;;;;;;;16.14;47.95;101737.69;4945268;28;20043;-69
2021/05/20 07:48:46;;;;;;;8.30;1.27;;;;;;;16.30;47.66;101738.81;4951181;29;20047;-71
2021/05/20 07:51:13;;;;;;;14.00;1.63;;;;;;;16.46;47.30;101740.00;4952050;28;20399;-69
2021/05/20 07:53:41;;;;;;;10.95;1.58;;;;;;;16.48;47.18;101726.59;4934138;29;20060;-71
2021/05/20 07:56:09;;;;;;;6.90;1.48;;;;;;;16.55;46.35;101728.84;4952488;29;20472;-72
2021/05/20 07:58:36;;;;;;;9.80;1.58;;;;;;;16.66;46.78;101721.81;4934772;29;20502;-71
2021/05/20 08:01:04;;;;;;;9.63;1.20;;;;;;;16.85;46.68;101716.69;4952618;29;20043;-72
2021/05/20 08:11:23;;;;;;;9.38;5.20;;;;;;;16.84;44.06;101715.88;4866655;29;20057;-72
2021/05/20 08:13:51;;;;;;;6.65;1.90;;;;;;;17.23;42.57;101709.19;4873655;29;20053;-70
2021/05/20 08:16:20;;;;;;;5.22;1.08;;;;;;;17.06;41.73;101705.66;4858223;29;20045;-72
2021/05/20 08:18:48;;;;;;;6.13;1.40;;;;;;;17.17;42.23;101698.59;4856557;29;20037;-72
2021/05/20 08:21:15;;;;;;;9.18;3.47;;;;;;;17.20;42.77;101698.75;4855585;29;20388;-70
2021/05/20 08:23:43;;;;;;;11.50;2.53;;;;;;;17.17;42.19;101695.81;4846072;29;20050;-70
2021/05/20 08:26:13;;;;;;;8.63;1.85;;;;;;;17.03;42.93;101704.38;4852563;29;20064;-72
2021/05/20 08:28:43;;;;;;;5.78;1.42;;;;;;;16.89;42.77;101700.97;4859199;29;20498;-72
2021/05/20 08:31:11;;;;;;;5.72;1.83;;;;;;;16.86;44.00;101701.63;4841003;29;20042;-70
2021/05/20 08:33:39;;;;;;;5.68;1.50;;;;;;;16.89;44.17;101687.88;4831638;29;20050;-72
2021/05/20 08:36:07;;;;;;;11.43;1.85;;;;;;;17.09;44.65;101689.13;4852774;29;20057;-70
2021/05/20 08:38:36;;;;;;;8.45;1.52;;;;;;;16.91;44.36;101679.22;4835694;29;20057;-71
2021/05/20 08:41:04;;;;;;;6.70;1.30;;;;;;;16.78;44.65;101683.00;4837062;29;20049;-70
2021/05/20 08:43:32;;;;;;;7.32;1.48;;;;;;;16.79;45.90;101679.06;4836691;29;20058;-70
2021/05/20 08:45:59;;;;;;;5.75;1.40;;;;;;;16.62;45.61;101673.53;4880293;29;20067;-70
2021/05/20 08:48:30;;;;;;;11.00;1.33;;;;;;;16.60;46.13;101671.09;4903327;29;20053;-72
2021/05/20 08:51:01;;;;;;;5.53;1.48;;;;;;;16.81;46.41;101673.97;4919886;29;20066;-70
2021/05/20 08:53:30;;;;;;;8.38;1.30;;;;;;;16.72;46.13;101670.41;4936686;29;20054;-70
2021/05/20 08:56:04;;;;;;;6.88;1.50;;;;;;;16.51;47.02;101667.50;4937167;29;20048;-68
2021/05/20 08:58:32;;;;;;;7.45;1.33;;;;;;;16.71;47.23;101660.44;4920385;29;20512;-71
2021/05/20 09:00:59;;;;;;;7.57;1.60;;;;;;;16.69;47.31;101660.75;4903768;29;20059;-71
2021/05/20 09:03:28;;;;;;;6.97;1.33;;;;;;;16.71;47.19;101657.66;4936458;29;20066;-71
2021/05/20 09:05:59;;;;;;;9.13;1.80;;;;;;;16.43;47.57;101664.72;4920042;29;20395;-72
2021/05/20 09:08:33;;;;;;;9.40;1.50;;;;;;;16.55;47.92;101662.94;4935545;29;20054;-70
2021/05/20 09:11:02;;;;;;;10.23;4.43;;;;;;;16.67;48.18;101654.72;4903835;29;20048;-71
2021/05/20 09:13:36;;;;;;;12.23;4.75;;;;;;;16.81;47.81;101654.50;4919175;29;20055;-70
2021/05/20 09:16:13;;;;;;;7.97;2.47;;;;;;;17.00;47.27;101635.44;4920360;29;20075;-71
2021/05/20 09:18:42;;;;;;;12.57;2.47;;;;;;;17.00;47.44;101638.22;4935350;29;20047;-72
2021/05/20 09:21:10;;;;;;;9.35;2.08;;;;;;;17.08;47.43;101628.19;4918117;29;20508;-72
2021/05/20 09:23:50;;;;;;;6.30;1.52;;;;;;;17.05;48.03;101629.69;4914939;29;20059;-73
2021/05/20 09:26:17;;;;;;;10.57;2.20;;;;;;;17.05;48.23;101629.69;4935184;29;20087;-72
2021/05/20 09:28:49;;;;;;;6.75;1.90;;;;;;;16.98;47.87;101636.94;4917970;29;20047;-69
2021/05/20 09:31:37;;;;;;;9.90;1.80;;;;;;;16.88;47.58;101644.50;4937761;29;20388;-72
2021/05/20 09:34:20;;;;;;;8.55;2.40;;;;;;;16.94;47.91;101642.34;4937409;29;20059;-71
2021/05/20 09:36:49;;;;;;;7.78;1.73;;;;;;;16.99;47.29;101631.03;4938032;29;20059;-71
2021/05/20 09:39:18;;;;;;;5.07;1.60;;;;;;;16.82;46.84;101631.91;4953199;28;20058;-71
2021/05/20 09:41:46;;;;;;;9.60;1.60;;;;;;;16.87;47.06;101628.13;4952592;29;20608;-70
2021/05/20 09:44:26;;;;;;;6.80;1.70;;;;;;;16.55;48.37;101620.38;4953582;29;20542;-71
2021/05/20 09:46:55;;;;;;;6.53;1.45;;;;;;;16.72;47.82;101623.09;4951802;29;20304;-71
2021/05/20 09:49:26;;;;;;;5.78;1.42;;;;;;;16.93;47.76;101620.44;4953881;29;20039;-72
2021/05/20 09:52:23;;;;;;;7.20;1.50;;;;;;;17.09;46.87;101605.59;4937150;28;20062;-69
2021/05/20 09:54:54;;;;;;;7.45;1.50;;;;;;;17.20;47.15;101609.63;4946986;29;20407;-69
2021/05/20 09:57:34;;;;;;;5.75;1.55;;;;;;;17.22;45.95;101609.31;4936986;29;20044;-71
2021/05/20 10:00:12;;;;;;;5.45;1.25;;;;;;;17.56;44.91;101611.88;4935640;29;20404;-73
2021/05/20 10:02:40;;;;;;;8.10;1.55;;;;;;;17.65;44.36;101613.47;4937656;29;20058;-70
2021/05/20 10:05:22;;;;;;;7.82;1.77;;;;;;;17.74;44.64;101610.59;4937934;29;20066;-71
2021/05/20 10:07:50;;;;;;;7.32;1.55;;;;;;;17.98;43.73;101597.63;4954246;29;20059;-69
2021/05/20 10:10:34;;;;;;;7.03;1.60;;;;;;;17.79;44.40;101597.28;4923665;29;20048;-68
2021/05/20 10:13:11;;;;;;;6.78;1.80;;;;;;;17.91;44.20;101594.56;4937214;29;20043;-68
2021/05/20 10:15:40;;;;;;;6.45;1.55;;;;;;;17.87;44.30;101590.00;4922190;29;20058;-68
2021/05/20 10:18:14;;;;;;;12.13;1.52;;;;;;;17.74;44.29;101578.00;4953720;29;20062;-68
2021/05/20 10:20:46;;;;;;;6.88;1.70;;;;;;;18.13;43.68;101573.88;4936786;29;20043;-67
2021/05/20 10:23:17;;;;;;;7.68;1.80;;;;;;;18.01;43.47;101567.44;4952362;29;20047;-68
2021/05/20 10:25:48;;;;;;;6.03;1.63;;;;;;;18.18;42.71;101564.47;4936700;29;20051;-68
2021/05/20 10:28:18;;;;;;;9.40;1.88;;;;;;;18.15;42.58;101556.78;4921311;29;20047;-68
2021/05/20 10:30:48;;;;;;;6.73;1.90;;;;;;;18.18;42.69;101559.72;4953501;29;20061;-69
2021/05/20 10:33:17;;;;;;;7.80;2.25;;;;;;;18.56;42.78;101553.88;4947269;28;20054;-67
2021/05/20 10:35:49;;;;;;;5.22;1.58;;;;;;;18.65;41.89;101546.22;4927289;29;20491;-69
2021/05/20 10:38:38;;;;;;;4.65;1.65;;;;;;;18.63;41.50;101542.97;4947324;29;20048;-69
2021/05/20 10:41:05;;;;;;;5.00;1.42;;;;;;;18.67;41.81;101532.75;4942713;28;20054;-68
2021/05/20 10:43:33;;;;;;;5.28;1.40;;;;;;;18.68;41.18;101542.72;4946764;28;20066;-69
2021/05/20 10:46:13;;;;;;;5.13;1.45;;;;;;;18.65;41.42;101538.69;4944922;29;20054;-68
2021/05/20 10:48:53;;;;;;;6.32;1.50;;;;;;;18.60;40.97;101532.50;4950057;28;20419;-69
2021/05/20 10:51:24;;;;;;;4.40;1.30;;;;;;;18.73;40.85;101534.13;4953975;28;20055;-69
2021/05/20 10:54:04;;;;;;;7.72;1.85;;;;;;;18.81;41.00;101527.63;4932957;28;20047;-70
2021/05/20 10:56:32;;;;;;;4.90;1.50;;;;;;;18.69;40.36;101520.06;4931733;29;20055;-70
2021/05/20 10:59:01;;;;;;;7.18;1.80;;;;;;;18.98;39.95;101516.22;4917334;29;20625;-69
2021/05/20 11:01:34;;;;;;;5.28;1.42;;;;;;;19.03;39.61;101518.78;4931928;29;20077;-67
2021/05/20 11:04:03;;;;;;;8.40;1.90;;;;;;;18.72;39.21;101519.38;4945804;28;20055;-69
2021/05/20 11:06:37;;;;;;;6.53;1.35;;;;;;;18.57;39.93;101505.28;4944067;29;20058;-67
2021/05/20 11:09:06;;;;;;;5.38;1.30;;;;;;;18.60;39.67;101502.59;4928841;29;20047;-71
2021/05/20 11:11:34;;;;;;;5.35;1.50;;;;;;;18.76;39.90;101495.16;4934921;29;20051;-69
2021/05/20 11:14:04;;;;;;;5.18;1.35;;;;;;;18.41;40.25;101509.94;4936622;29;20051;-69
2021/05/20 11:16:33;;;;;;;4.28;1.45;;;;;;;18.56;40.42;101512.84;4935951;28;20066;-69
2021/05/20 11:19:18;;;;;;;5.47;1.75;;;;;;;18.37;40.77;101525.69;4952086;29;20522;-67
2021/05/20 11:22:04;;;;;;;6.22;1.40;;;;;;;18.24;41.38;101526.81;4957189;28;20069;-67
2021/05/20 11:24:36;;;;;;;3.58;1.17;;;;;;;18.46;41.68;101506.91;4953125;29;20050;-67
2021/05/20 11:27:04;;;;;;;4.13;1.30;;;;;;;18.89;41.22;101502.38;4952559;28;20055;-65
2021/05/20 11:29:33;;;;;;;4.40;1.27;;;;;;;18.78;41.08;101501.22;4951145;28;20047;-69
2021/05/20 11:32:30;;;;;;;3.10;1.10;;;;;;;18.66;41.02;101492.03;4934665;29;20388;-67
2021/05/20 11:37:47;;;;;;;3.78;1.27;;;;;;;18.29;42.00;101482.78;4934972;29;20458;-68
2021/05/20 11:40:25;;;;;;;7.00;1.65;;;;;;;18.11;42.23;101488.91;4934330;29;20124;-66
2021/05/20 11:42:52;;;;;;;5.72;1.27;;;;;;;18.11;42.26;101486.13;4933911;29;20058;-68
2021/05/20 11:45:28;;;;;;;5.28;1.30;;;;;;;17.95;42.43;101475.66;4935574;29;20059;-67